createdAt,value
2022-11-04T00:02:05.848Z,3.67
2022-11-04T00:04:32.399Z,3.10
2022-11-04T00:06:58.917Z,2.97
2022-11-04T00:09:29.239Z,3.70
2022-11-04T00:12:14.751Z,3.23
2022-11-04T00:14:41.995Z,3.83
2022-11-04T00:17:19.740Z,3.47
2022-11-04T00:20:12.767Z,3.33
2022-11-04T00:23:00.036Z,3.20
2022-11-04T00:25:47.568Z,2.88
2022-11-04T00:28:37.951Z,3.33
2022-11-04T00:31:25.384Z,3.65
2022-11-04T00:33:53.509Z,4.20
2022-11-04T00:36:21.170Z,2.97
2022-11-04T00:38:47.790Z,3.83
2022-11-04T00:41:26.694Z,3.63
2022-11-04T00:43:59.634Z,3.43
2022-11-04T00:46:28.481Z,3.53
2022-11-04T00:48:54.973Z,4.05
2022-11-04T00:51:21.854Z,3.93
2022-11-04T00:53:49.003Z,3.85
2022-11-04T00:56:25.979Z,4.27
2022-11-04T00:58:52.657Z,4.13
2022-11-04T01:01:21.116Z,4.33
2022-11-04T01:03:50.110Z,4.80
2022-11-04T01:06:17.185Z,4.10
2022-11-04T01:08:44.019Z,4.00
2022-11-04T01:11:11.401Z,5.00
2022-11-04T01:13:38.743Z,4.60
2022-11-04T01:16:08.021Z,5.13
2022-11-04T01:18:35.072Z,4.83
2022-11-04T01:21:02.401Z,5.07
2022-11-04T01:23:29.158Z,4.70
2022-11-04T01:25:55.827Z,4.72
2022-11-04T01:28:27.459Z,5.45
2022-11-04T01:30:53.916Z,5.77
2022-11-04T01:33:20.531Z,5.97
2022-11-04T01:35:47.008Z,4.90
2022-11-04T01:38:13.424Z,5.40
2022-11-04T01:40:40.661Z,5.43
2022-11-04T01:43:15.142Z,5.73
2022-11-04T01:45:54.176Z,5.47
2022-11-04T01:48:23.014Z,7.33
2022-11-04T01:50:51.137Z,6.47
2022-11-04T01:53:26.032Z,6.13
2022-11-04T01:56:11.924Z,6.63
2022-11-04T01:58:48.898Z,5.47
2022-11-04T02:01:15.689Z,7.10
2022-11-04T02:03:54.999Z,7.00
2022-11-04T02:06:22.507Z,6.57
2022-11-04T02:08:49.540Z,6.80
2022-11-04T02:11:36.116Z,6.20
2022-11-04T02:14:02.716Z,5.60
2022-11-04T02:16:43.463Z,7.33
2022-11-04T02:19:26.018Z,6.90
2022-11-04T02:22:26.373Z,6.40
2022-11-04T02:25:02.238Z,7.07
2022-11-04T02:27:38.122Z,6.30
2022-11-04T02:30:11.030Z,6.63
2022-11-04T02:32:47.159Z,7.03
2022-11-04T02:35:36.525Z,6.38
2022-11-04T02:38:25.357Z,6.87
2022-11-04T02:41:03.569Z,7.22
2022-11-04T02:43:44.286Z,7.50
2022-11-04T02:46:26.281Z,6.83
2022-11-04T02:48:58.493Z,7.40
2022-11-04T02:51:29.435Z,7.07
2022-11-04T02:54:05.187Z,6.70
2022-11-04T02:56:32.555Z,7.73
2022-11-04T02:59:04.473Z,7.80
2022-11-04T03:01:35.300Z,6.97
2022-11-04T03:04:09.130Z,6.50
2022-11-04T03:06:36.476Z,6.97
2022-11-04T03:09:04.539Z,6.73
2022-11-04T03:11:31.252Z,6.55
2022-11-04T03:14:02.652Z,7.97
2022-11-04T03:16:46.784Z,6.83
2022-11-04T03:19:33.319Z,6.45
2022-11-04T03:22:05.488Z,6.18
2022-11-04T03:24:32.167Z,7.43
2022-11-04T03:27:02.985Z,6.57
2022-11-04T03:29:32.107Z,5.90
2022-11-04T03:32:01.797Z,6.05
2022-11-04T03:34:28.528Z,6.47
2022-11-04T03:36:54.992Z,6.32
2022-11-04T03:39:21.771Z,6.22
2022-11-04T03:41:51.401Z,6.55
2022-11-04T03:44:24.620Z,6.50
2022-11-04T03:46:53.696Z,6.35
2022-11-04T03:49:22.532Z,5.93
2022-11-04T03:51:50.499Z,5.83
2022-11-04T03:54:17.396Z,6.13
2022-11-04T03:56:56.393Z,6.07
2022-11-04T03:59:46.266Z,6.28
2022-11-04T04:02:23.336Z,5.85
2022-11-04T04:04:56.766Z,5.70
2022-11-04T04:07:31.622Z,6.27
2022-11-04T04:10:33.504Z,6.00
2022-11-04T04:13:02.675Z,5.82
2022-11-04T04:15:44.638Z,6.57
2022-11-04T04:18:13.582Z,5.90
2022-11-04T04:20:40.908Z,6.67
2022-11-04T04:23:36.438Z,6.87
2022-11-04T04:26:23.958Z,6.67
2022-11-04T04:28:52.055Z,6.63
2022-11-04T04:31:38.972Z,7.43
2022-11-04T04:34:06.776Z,7.38
2022-11-04T04:36:45.843Z,8.37
2022-11-04T04:39:31.570Z,6.80
2022-11-04T04:42:16.704Z,6.43
2022-11-04T04:45:02.466Z,8.30
2022-11-04T04:47:36.177Z,7.80
2022-11-04T04:50:13.875Z,7.80
2022-11-04T04:52:43.575Z,7.73
2022-11-04T04:55:10.776Z,8.37
2022-11-04T04:57:37.402Z,8.33
2022-11-04T05:00:06.555Z,8.23
2022-11-04T05:02:33.074Z,8.10
2022-11-04T05:04:59.717Z,8.37
2022-11-04T05:07:26.258Z,7.67
2022-11-04T05:09:52.753Z,7.57
2022-11-04T05:12:19.382Z,7.60
2022-11-04T05:14:45.805Z,8.73
2022-11-04T05:17:12.598Z,8.93
2022-11-04T05:19:39.008Z,9.60
2022-11-04T05:22:05.605Z,9.07
2022-11-04T05:24:31.991Z,8.77
2022-11-04T05:26:58.507Z,9.40
2022-11-04T05:29:24.879Z,9.50
2022-11-04T05:31:51.306Z,9.68
2022-11-04T05:34:17.708Z,9.18
2022-11-04T05:36:44.215Z,8.47
2022-11-04T05:39:13.437Z,9.48
2022-11-04T05:41:40.047Z,9.83
2022-11-04T05:44:15.926Z,8.13
2022-11-04T05:46:42.664Z,8.60
2022-11-04T05:49:18.370Z,9.07
2022-11-04T05:51:45.323Z,9.17
2022-11-04T05:54:11.748Z,9.60
2022-11-04T05:56:38.180Z,9.97
2022-11-04T05:59:04.532Z,9.30
2022-11-04T06:01:35.957Z,9.33
2022-11-04T06:04:03.262Z,8.40
2022-11-04T06:06:33.492Z,11.00
2022-11-04T06:09:00.110Z,8.52
2022-11-04T06:11:28.097Z,9.40
2022-11-04T06:13:56.632Z,9.20
2022-11-04T06:16:23.520Z,10.47
2022-11-04T06:18:50.523Z,8.63
2022-11-04T06:21:42.189Z,9.47
2022-11-04T06:24:08.593Z,9.30
2022-11-04T06:26:35.397Z,11.50
2022-11-04T06:29:05.311Z,8.60
2022-11-04T06:31:31.901Z,10.57
2022-11-04T06:33:58.275Z,11.40
2022-11-04T06:36:24.684Z,10.17
2022-11-04T06:38:51.190Z,9.40
2022-11-04T06:41:17.798Z,9.43
2022-11-04T06:43:44.451Z,11.17
2022-11-04T06:46:36.186Z,10.33
2022-11-04T06:49:03.863Z,8.65
2022-11-04T06:51:30.739Z,9.10
2022-11-04T06:53:57.168Z,9.77
2022-11-04T06:56:23.722Z,8.32
2022-11-04T06:58:51.094Z,9.73
2022-11-04T07:01:22.068Z,9.13
2022-11-04T07:03:53.740Z,10.33
2022-11-04T07:06:21.360Z,8.77
2022-11-04T07:08:49.083Z,8.00
2022-11-04T07:11:17.197Z,8.00
2022-11-04T07:13:43.778Z,8.10
2022-11-04T07:16:10.379Z,8.02
2022-11-04T07:18:36.850Z,7.65
2022-11-04T07:21:09.608Z,6.43
2022-11-04T07:23:40.797Z,6.93
2022-11-04T07:26:09.051Z,6.90
2022-11-04T07:28:35.956Z,6.32
2022-11-04T07:31:04.443Z,5.18
2022-11-04T07:33:32.734Z,5.93
2022-11-04T07:36:03.254Z,5.32
2022-11-04T07:38:29.823Z,5.80
2022-11-04T07:40:57.839Z,4.72
2022-11-04T07:43:24.296Z,4.90
2022-11-04T07:46:02.071Z,4.30
2022-11-04T07:48:28.751Z,4.00
2022-11-04T07:50:57.428Z,4.20
2022-11-04T07:53:23.989Z,4.70
2022-11-04T07:55:51.358Z,4.40
2022-11-04T07:58:19.652Z,4.40
2022-11-04T08:00:46.328Z,3.47
2022-11-04T08:03:13.258Z,3.55
2022-11-04T08:05:40.274Z,4.20
2022-11-04T08:08:07.899Z,4.20
2022-11-04T08:10:34.995Z,4.07
2022-11-04T08:13:01.566Z,4.20
2022-11-04T08:15:29.169Z,3.42
2022-11-04T08:17:55.704Z,3.67
2022-11-04T08:20:22.201Z,3.60
2022-11-04T08:22:48.605Z,3.20
2022-11-04T08:25:15.046Z,3.00
2022-11-04T08:27:42.792Z,3.85
2022-11-04T08:30:09.942Z,4.13
2022-11-04T08:32:36.401Z,3.20
2022-11-04T08:35:04.207Z,3.57
2022-11-04T08:37:30.760Z,2.50
2022-11-04T08:39:57.402Z,2.87
2022-11-04T08:42:42.322Z,2.77
2022-11-04T08:45:08.961Z,2.63
2022-11-04T08:47:35.505Z,2.60
2022-11-04T08:50:20.679Z,3.00
2022-11-04T08:52:47.055Z,2.70
2022-11-04T08:55:14.127Z,3.00
2022-11-04T08:57:40.550Z,3.03
2022-11-04T09:00:07.459Z,2.70
2022-11-04T09:02:34.007Z,2.70
2022-11-04T09:05:00.644Z,2.53
2022-11-04T09:07:27.231Z,2.60
2022-11-04T09:09:53.804Z,2.65
2022-11-04T09:12:20.764Z,2.37
2022-11-04T09:14:47.272Z,2.75
2022-11-04T09:17:13.852Z,2.40
2022-11-04T09:19:40.251Z,2.30
2022-11-04T09:22:06.654Z,2.22
2022-11-04T09:24:33.059Z,2.45
2022-11-04T09:26:59.585Z,2.00
2022-11-04T09:29:26.587Z,2.00
2022-11-04T09:31:53.282Z,2.43
2022-11-04T09:34:19.862Z,2.73
2022-11-04T09:36:47.491Z,2.83
2022-11-04T09:39:23.127Z,2.40
2022-11-04T09:42:02.387Z,2.45
2022-11-04T09:45:15.073Z,3.10
2022-11-04T09:47:35.038Z,2.42
2022-11-04T09:50:01.993Z,2.58
2022-11-04T09:52:37.686Z,2.73
2022-11-04T09:55:21.080Z,3.50
2022-11-04T09:57:54.219Z,3.03
2022-11-04T10:00:31.463Z,6.13
2022-11-04T10:03:31.077Z,5.67
2022-11-04T10:06:03.501Z,2.50
2022-11-04T10:08:54.144Z,3.17
2022-11-04T10:11:51.967Z,2.73
2022-11-04T10:14:19.303Z,2.87
2022-11-04T10:17:17.791Z,3.60
2022-11-04T10:19:52.700Z,3.07
2022-11-04T10:22:19.314Z,3.37
2022-11-04T10:25:01.487Z,3.37
2022-11-04T10:27:30.911Z,3.40
2022-11-04T10:30:00.938Z,3.30
2022-11-04T10:32:47.875Z,3.50
2022-11-04T10:35:36.276Z,3.53
2022-11-04T10:38:15.978Z,3.30
2022-11-04T10:41:12.838Z,3.23
2022-11-04T10:43:40.698Z,3.63
2022-11-04T10:46:41.733Z,2.97
2022-11-04T10:49:55.009Z,2.53
2022-11-04T10:52:28.850Z,2.60
2022-11-04T10:54:55.285Z,2.73
2022-11-04T10:57:30.962Z,2.40
2022-11-04T11:00:02.766Z,2.40
2022-11-04T11:02:41.576Z,2.70
2022-11-04T11:05:18.194Z,2.63
2022-11-04T11:07:48.123Z,2.15
2022-11-04T11:10:26.560Z,2.70
2022-11-04T11:13:04.804Z,2.27
2022-11-04T11:15:39.209Z,2.55
2022-11-04T11:18:16.701Z,2.60
2022-11-04T11:20:49.242Z,2.70
2022-11-04T11:23:38.503Z,2.93
2022-11-04T11:26:27.785Z,2.77
2022-11-04T11:29:02.166Z,2.47
2022-11-04T11:31:40.370Z,2.50
2022-11-04T11:34:15.633Z,3.13
2022-11-04T11:36:44.630Z,3.00
2022-11-04T11:39:11.136Z,2.60
2022-11-04T11:41:58.228Z,2.80
2022-11-04T11:44:26.170Z,2.67
2022-11-04T11:46:56.066Z,2.70
2022-11-04T11:49:25.842Z,2.60
2022-11-04T11:51:52.294Z,2.50
2022-11-04T11:54:33.713Z,1.83
2022-11-04T11:57:24.963Z,2.37
2022-11-04T12:02:42.025Z,2.10
2022-11-04T12:11:27.553Z,2.20
2022-11-04T12:14:03.648Z,1.80
2022-11-04T12:16:45.414Z,1.70
2022-11-04T12:19:20.734Z,2.20
2022-11-04T12:21:55.253Z,1.80
2022-11-04T12:24:27.464Z,2.50
2022-11-04T12:27:05.814Z,2.00
2022-11-04T12:29:44.712Z,2.28
2022-11-04T12:32:39.017Z,2.17
2022-11-04T12:35:20.995Z,2.47
2022-11-04T12:38:38.355Z,2.13
2022-11-04T12:41:37.886Z,2.47
2022-11-04T12:44:30.754Z,2.37
2022-11-04T12:47:12.719Z,2.60
2022-11-04T12:50:04.287Z,1.90
2022-11-04T12:52:44.328Z,2.17
2022-11-04T12:55:25.890Z,2.87
2022-11-04T12:58:27.796Z,2.63
2022-11-04T13:01:04.014Z,2.60
2022-11-04T13:03:46.113Z,2.47
2022-11-04T13:06:19.498Z,2.53
2022-11-04T13:09:05.986Z,2.63
2022-11-04T13:11:40.625Z,2.40
2022-11-04T13:14:29.778Z,2.87
2022-11-04T13:17:00.190Z,3.20
2022-11-04T13:19:41.107Z,3.17
2022-11-04T13:22:11.955Z,3.13
2022-11-04T13:24:41.159Z,3.10
2022-11-04T13:27:19.440Z,2.50
2022-11-04T13:29:46.769Z,2.97
2022-11-04T13:32:31.720Z,2.67
2022-11-04T13:35:13.069Z,2.97
2022-11-04T13:37:47.843Z,3.33
2022-11-04T13:40:20.755Z,2.97
2022-11-04T13:43:21.353Z,3.20
2022-11-04T13:45:53.918Z,3.10
2022-11-04T13:48:22.390Z,3.00
2022-11-04T13:50:57.834Z,2.43
2022-11-04T13:53:54.838Z,4.50
2022-11-04T13:56:34.267Z,3.87
2022-11-04T13:59:30.739Z,3.23
2022-11-04T14:02:13.051Z,4.13
2022-11-04T14:04:40.132Z,6.30
2022-11-04T14:07:10.572Z,4.50
2022-11-04T14:09:43.205Z,5.10
2022-11-04T14:12:19.005Z,7.37
2022-11-04T14:14:52.148Z,5.37
2022-11-04T14:17:33.878Z,6.60
2022-11-04T14:20:06.703Z,3.53
2022-11-04T14:22:48.065Z,3.20
2022-11-04T14:25:20.775Z,3.40
2022-11-04T14:27:49.891Z,3.00
2022-11-04T14:30:41.547Z,2.70
2022-11-04T14:33:19.930Z,3.83
2022-11-04T14:35:46.361Z,3.70
2022-11-04T14:38:39.230Z,2.90
2022-11-04T14:41:14.275Z,3.30
2022-11-04T14:43:48.982Z,3.53
2022-11-04T14:46:34.970Z,3.97
2022-11-04T14:49:40.037Z,4.67
2022-11-04T14:52:16.070Z,4.57
2022-11-04T14:54:43.129Z,3.93
2022-11-04T14:57:20.863Z,3.90
2022-11-04T14:59:48.510Z,2.83
2022-11-04T15:02:21.885Z,3.87
2022-11-04T15:04:52.602Z,2.97
2022-11-04T15:07:45.782Z,2.87
2022-11-04T15:10:26.977Z,3.10
2022-11-04T15:13:00.243Z,3.30
2022-11-04T15:15:29.791Z,2.97
2022-11-04T15:18:17.898Z,3.30
2022-11-04T15:20:59.593Z,10.37
2022-11-04T15:23:32.159Z,5.63
2022-11-04T15:26:03.107Z,5.60
2022-11-04T15:28:36.284Z,2.80
2022-11-04T15:31:11.267Z,3.50
2022-11-04T15:33:41.752Z,4.20
2022-11-04T15:36:12.717Z,3.90
2022-11-04T15:38:41.705Z,2.70
2022-11-04T15:41:27.149Z,3.20
2022-11-04T15:43:54.064Z,3.13
2022-11-04T15:46:21.405Z,3.40
2022-11-04T15:49:02.048Z,3.53
2022-11-04T15:51:37.983Z,2.80
2022-11-04T15:54:07.601Z,3.53
2022-11-04T15:56:40.802Z,3.83
2022-11-04T15:59:10.549Z,3.27
2022-11-04T16:01:44.969Z,3.47
2022-11-04T16:04:17.181Z,3.20
2022-11-04T16:06:44.950Z,3.80
2022-11-04T16:09:23.241Z,3.60
2022-11-04T16:12:15.509Z,2.93
2022-11-04T16:14:50.460Z,3.70
2022-11-04T16:17:17.111Z,3.07
2022-11-04T16:19:47.320Z,3.63
2022-11-04T16:22:19.800Z,3.10
2022-11-04T16:24:49.023Z,3.10
2022-11-04T16:27:20.646Z,3.33
2022-11-04T16:30:02.166Z,3.90
2022-11-04T16:32:31.643Z,4.17
2022-11-04T16:35:00.964Z,4.33
2022-11-04T16:37:27.685Z,4.53
2022-11-04T16:39:54.356Z,4.03
2022-11-04T16:42:22.097Z,4.00
2022-11-04T16:44:50.869Z,4.07
2022-11-04T16:47:19.028Z,4.00
2022-11-04T16:49:46.143Z,3.33
2022-11-04T16:52:25.435Z,3.83
2022-11-04T16:54:52.133Z,4.30
2022-11-04T16:57:18.576Z,3.90
2022-11-04T16:59:45.089Z,4.20
2022-11-04T17:02:21.103Z,3.87
2022-11-04T17:04:47.753Z,3.77
2022-11-04T17:07:14.230Z,4.70
2022-11-04T17:09:45.723Z,5.00
2022-11-04T17:12:12.235Z,5.17
2022-11-04T17:14:38.925Z,6.83
2022-11-04T17:17:05.966Z,5.00
2022-11-04T17:19:34.886Z,4.47
2022-11-04T17:22:05.788Z,4.73
2022-11-04T17:24:32.714Z,4.87
2022-11-04T17:26:59.424Z,5.17
2022-11-04T17:29:27.287Z,4.60
2022-11-04T17:31:53.955Z,5.03
2022-11-04T17:34:23.742Z,4.80
2022-11-04T17:36:50.274Z,4.57
2022-11-04T17:39:16.769Z,4.87
2022-11-04T17:42:02.021Z,4.77
2022-11-04T17:44:28.453Z,4.37
2022-11-04T17:46:54.974Z,4.63
2022-11-04T17:49:23.582Z,5.10
2022-11-04T17:51:53.684Z,5.73
2022-11-04T17:54:20.850Z,4.73
2022-11-04T17:56:47.344Z,4.50
2022-11-04T17:59:15.161Z,6.17
2022-11-04T18:01:42.946Z,4.93
2022-11-04T18:04:15.165Z,5.77
2022-11-04T18:06:41.702Z,5.33
2022-11-04T18:09:10.906Z,7.00
2022-11-04T18:11:56.470Z,5.47
2022-11-04T18:14:23.427Z,4.90
2022-11-04T18:16:50.324Z,4.77
2022-11-04T18:19:18.742Z,5.53
2022-11-04T18:21:46.251Z,5.40
2022-11-04T18:24:12.911Z,4.63
2022-11-04T18:26:39.921Z,4.73
2022-11-04T18:29:06.689Z,4.33
2022-11-04T18:31:38.792Z,5.07
2022-11-04T18:34:08.217Z,5.60
2022-11-04T18:36:35.306Z,5.03
2022-11-04T18:39:01.916Z,4.40
2022-11-04T18:41:28.424Z,4.37
2022-11-04T18:43:54.877Z,4.37
2022-11-04T18:46:21.349Z,5.60
2022-11-04T18:48:51.474Z,4.20
2022-11-04T18:51:20.042Z,5.50
2022-11-04T18:53:46.712Z,4.47
2022-11-04T18:56:15.770Z,5.13
2022-11-04T18:58:44.951Z,5.10
2022-11-04T19:01:26.097Z,5.40
2022-11-04T19:03:52.676Z,5.80
2022-11-04T19:06:21.715Z,6.00
2022-11-04T19:08:50.351Z,4.73
2022-11-04T19:11:26.608Z,4.50
2022-11-04T19:13:55.677Z,5.60
2022-11-04T19:16:22.612Z,6.47
2022-11-04T19:18:49.641Z,6.97
2022-11-04T19:21:18.707Z,5.53
2022-11-04T19:23:45.387Z,5.70
2022-11-04T19:26:18.114Z,5.10
2022-11-04T19:28:48.603Z,4.53
2022-11-04T19:31:22.684Z,4.33
2022-11-04T19:33:50.069Z,4.53
2022-11-04T19:36:18.708Z,4.30
2022-11-04T19:38:45.297Z,4.17
2022-11-04T19:41:32.616Z,4.37
2022-11-04T19:44:00.945Z,4.57
2022-11-04T19:46:27.427Z,4.20
2022-11-04T19:48:53.978Z,4.17
2022-11-04T19:51:20.474Z,4.43
2022-11-04T19:53:46.971Z,3.80
2022-11-04T19:56:15.708Z,5.23
2022-11-04T19:58:43.221Z,4.87
2022-11-04T20:01:10.557Z,4.10
2022-11-04T20:03:37.486Z,5.10
2022-11-04T20:06:04.128Z,5.20
2022-11-04T20:08:30.682Z,5.23
2022-11-04T20:11:01.570Z,5.17
2022-11-04T20:13:46.829Z,4.90
2022-11-04T20:16:21.863Z,4.77
2022-11-04T20:18:51.222Z,5.27
2022-11-04T20:21:19.671Z,5.13
2022-11-04T20:23:46.139Z,4.40
2022-11-04T20:26:20.254Z,4.20
2022-11-04T20:28:47.333Z,4.97
2022-11-04T20:31:19.576Z,5.33
2022-11-04T20:33:47.411Z,4.57
2022-11-04T20:36:15.669Z,5.50
2022-11-04T20:38:42.380Z,5.87
2022-11-04T20:41:11.076Z,4.87
2022-11-04T20:43:38.125Z,4.37
2022-11-04T20:46:11.641Z,4.70
2022-11-04T20:48:38.598Z,3.97
2022-11-04T20:51:09.296Z,4.43
2022-11-04T20:53:36.413Z,4.37
2022-11-04T20:56:07.233Z,4.87
2022-11-04T20:58:34.966Z,5.10
2022-11-04T21:01:03.763Z,4.00
2022-11-04T21:03:30.429Z,4.63
2022-11-04T21:05:57.042Z,4.40
2022-11-04T21:08:24.620Z,3.60
2022-11-04T21:10:52.918Z,4.03
2022-11-04T21:13:19.548Z,4.77
2022-11-04T21:15:51.619Z,4.47
2022-11-04T21:18:18.233Z,4.23
2022-11-04T21:20:44.867Z,4.90
2022-11-04T21:23:12.970Z,5.00
2022-11-04T21:26:05.693Z,4.03
2022-11-04T21:28:33.232Z,3.97
2022-11-04T21:31:06.673Z,4.60
2022-11-04T21:33:33.125Z,4.53
2022-11-04T21:36:07.733Z,4.17
2022-11-04T21:38:34.495Z,3.63
2022-11-04T21:41:02.589Z,4.07
2022-11-04T21:43:29.096Z,4.33
2022-11-04T21:46:09.963Z,4.07
2022-11-04T21:48:37.221Z,5.10
2022-11-04T21:51:06.160Z,4.40
2022-11-04T21:53:32.937Z,3.80
2022-11-04T21:56:19.976Z,4.00
2022-11-04T21:58:46.666Z,4.60
2022-11-04T22:01:16.438Z,3.93
2022-11-04T22:03:43.752Z,4.33
2022-11-04T22:06:12.287Z,4.53
2022-11-04T22:08:41.627Z,4.20
2022-11-04T22:11:14.089Z,5.70
2022-11-04T22:13:41.280Z,4.30
2022-11-04T22:16:13.020Z,5.07
2022-11-04T22:18:39.591Z,4.13
2022-11-04T22:21:08.463Z,3.70
2022-11-04T22:23:35.957Z,5.53
2022-11-04T22:26:07.685Z,4.63
2022-11-04T22:28:34.295Z,4.93
2022-11-04T22:31:08.229Z,5.47
2022-11-04T22:33:34.732Z,4.27
2022-11-04T22:36:01.407Z,4.53
2022-11-04T22:38:28.042Z,4.77
2022-11-04T22:40:58.460Z,4.87
2022-11-04T22:43:25.506Z,4.50
2022-11-04T22:45:52.816Z,4.57
2022-11-04T22:48:19.396Z,4.23
2022-11-04T22:50:46.931Z,5.17
2022-11-04T22:53:13.865Z,4.60
2022-11-04T22:55:40.297Z,5.33
2022-11-04T22:58:06.705Z,4.50
2022-11-04T23:00:33.128Z,4.60
2022-11-04T23:02:59.830Z,4.90
2022-11-04T23:05:28.167Z,4.43
2022-11-04T23:07:55.764Z,4.73
2022-11-04T23:10:40.817Z,4.33
2022-11-04T23:13:27.763Z,4.23
2022-11-04T23:16:12.874Z,4.80
2022-11-04T23:18:41.959Z,4.83
2022-11-04T23:21:36.960Z,4.63
2022-11-04T23:24:22.034Z,4.20
2022-11-04T23:26:48.592Z,4.43
2022-11-04T23:29:34.635Z,4.50
2022-11-04T23:32:01.096Z,4.50
2022-11-04T23:34:46.169Z,4.57
2022-11-04T23:37:13.232Z,3.87
2022-11-04T23:39:43.658Z,4.17
2022-11-04T23:42:18.064Z,4.33
2022-11-04T23:45:13.815Z,4.93
2022-11-04T23:48:03.963Z,3.63
2022-11-04T23:50:52.979Z,3.13
2022-11-04T23:53:56.271Z,3.93
2022-11-04T23:56:41.586Z,3.93
2022-11-04T23:59:30.543Z,4.17
